Time;durP1;ratioP1;P1;durP2;ratioP2;P2;SDS_P1;SDS_P2;PMS_P1;PMS_P2;Temp;Humidity;BMP_temperature;BMP_pressure;BME280_temperature;BME280_humidity;BME280_pressure;Samples;Min_cycle;Max_cycle;Signal;HPM_P1;HPM_P2
2023/05/02 00:02:15;;;;;;;7.72;5.05;;;;;;;19.64;45.32;101916.25;5022128;28;20033;-71
2023/05/02 00:04:41;;;;;;;8.25;5.00;;;;;;;19.67;45.63;101923.97;5022498;28;20033;-72
2023/05/02 00:07:06;;;;;;;6.75;4.65;;;;;;;19.69;45.57;101936.16;5021957;28;20524;-72
2023/05/02 00:09:31;;;;;;;7.90;5.00;;;;;;;19.68;45.53;101931.81;5022308;28;20037;-71
2023/05/02 00:11:56;;;;;;;8.07;4.78;;;;;;;19.62;45.39;101934.88;5020868;28;20036;-72
2023/05/02 00:14:22;;;;;;;7.00;4.90;;;;;;;19.64;45.46;101932.13;5021825;28;20033;-71
2023/05/02 00:16:47;;;;;;;6.88;4.50;;;;;;;19.64;45.57;101938.25;5021802;28;20040;-71
2023/05/02 00:19:12;;;;;;;8.73;4.70;;;;;;;19.65;45.60;101941.75;5022312;28;20509;-72
2023/05/02 00:21:38;;;;;;;9.13;5.30;;;;;;;19.65;45.44;101944.41;5021655;28;20037;-72
2023/05/02 00:24:03;;;;;;;7.50;4.93;;;;;;;19.63;45.60;101946.28;5021340;28;20049;-71
2023/05/02 00:26:29;;;;;;;6.22;4.63;;;;;;;19.64;45.71;101951.47;5021526;28;20576;-72
2023/05/02 00:28:55;;;;;;;6.88;4.60;;;;;;;19.64;45.61;101956.75;5021823;28;20029;-72
2023/05/02 00:31:20;;;;;;;7.10;4.50;;;;;;;19.63;45.72;101954.22;5021413;28;20029;-71
2023/05/02 00:33:45;;;;;;;7.13;5.10;;;;;;;19.61;45.26;101956.97;5021954;28;20124;-71
2023/05/02 00:36:18;;;;;;;6.53;4.80;;;;;;;19.62;45.58;101958.69;5021600;28;20037;-71
2023/05/02 00:38:44;;;;;;;9.02;4.97;;;;;;;19.61;45.59;101959.63;5021708;28;20392;-72
2023/05/02 00:41:10;;;;;;;7.78;4.60;;;;;;;19.64;45.50;101969.16;5021285;28;20041;-74
2023/05/02 00:43:36;;;;;;;6.55;4.70;;;;;;;19.64;45.36;101971.78;5021661;28;20040;-71
2023/05/02 00:46:02;;;;;;;7.35;5.00;;;;;;;19.63;45.52;101963.03;5021098;28;20512;-72
2023/05/02 00:48:27;;;;;;;6.57;4.70;;;;;;;19.62;45.34;101956.03;5021480;28;20232;-72
2023/05/02 00:50:52;;;;;;;7.28;4.72;;;;;;;19.61;45.28;101959.63;5021410;28;20538;-72
2023/05/02 00:53:18;;;;;;;7.72;4.70;;;;;;;19.61;45.65;101966.72;5021923;28;20665;-70
2023/05/02 00:55:44;;;;;;;8.68;5.03;;;;;;;19.60;45.49;101967.66;5021085;28;20037;-72
2023/05/02 00:58:15;;;;;;;7.53;4.78;;;;;;;19.61;45.55;101964.06;5021164;28;20029;-73
2023/05/02 01:01:02;;;;;;;7.43;4.65;;;;;;;19.60;45.37;101973.81;5021156;28;20128;-71
2023/05/02 01:03:55;;;;;;;6.80;4.72;;;;;;;19.60;45.44;101965.88;5020065;28;20095;-70
2023/05/02 01:06:27;;;;;;;7.95;4.60;;;;;;;19.61;45.24;101959.63;5021189;28;20033;-72
2023/05/02 01:09:26;;;;;;;6.97;4.30;;;;;;;19.60;45.35;101962.38;5021180;28;20040;-71
2023/05/02 01:12:15;;;;;;;5.97;4.13;;;;;;;19.58;45.13;101967.75;5021053;28;20148;-70
2023/05/02 01:14:42;;;;;;;6.13;4.28;;;;;;;19.58;45.35;101967.75;5021107;28;20112;-72
2023/05/02 01:17:12;;;;;;;6.80;4.38;;;;;;;19.58;45.27;101967.75;5020877;28;20084;-71
2023/05/02 01:19:42;;;;;;;6.55;4.05;;;;;;;19.56;45.43;101973.16;5020982;28;20040;-71
2023/05/02 01:22:09;;;;;;;6.45;4.30;;;;;;;19.57;45.30;101968.75;5020898;28;20033;-72
2023/05/02 01:24:48;;;;;;;6.05;4.20;;;;;;;19.56;45.17;101972.31;5020362;28;20064;-72
2023/05/02 01:27:23;;;;;;;6.50;4.13;;;;;;;19.58;45.42;101967.75;5020541;28;20025;-72
2023/05/02 01:29:50;;;;;;;5.60;3.85;;;;;;;19.58;45.19;101962.47;5020545;28;20033;-71
2023/05/02 01:32:18;;;;;;;6.00;3.53;;;;;;;19.57;45.06;101972.22;5021095;28;20428;-71
2023/05/02 01:34:45;;;;;;;6.57;3.90;;;;;;;19.55;45.06;101966.19;5020696;28;20065;-72
2023/05/02 01:37:14;;;;;;;5.95;4.20;;;;;;;19.55;44.83;101966.19;5025424;28;20417;-72
2023/05/02 01:39:41;;;;;;;5.68;3.67;;;;;;;19.55;44.98;101970.63;5025471;28;20047;-72
2023/05/02 01:42:06;;;;;;;5.63;3.40;;;;;;;19.53;44.87;101965.44;5025109;28;20022;-71
2023/05/02 01:44:35;;;;;;;6.13;3.40;;;;;;;19.54;44.85;101977.72;5024687;28;20088;-70
2023/05/02 01:47:04;;;;;;;6.50;3.67;;;;;;;19.54;44.81;101972.44;5025173;28;20041;-71
2023/05/02 01:49:31;;;;;;;5.03;3.10;;;;;;;19.53;44.96;101975.19;5024767;28;20397;-71
2023/05/02 01:52:02;;;;;;;5.38;3.33;;;;;;;19.47;45.32;101959.72;5024705;28;20112;-71
2023/05/02 01:54:28;;;;;;;6.45;3.50;;;;;;;19.50;44.99;101976.25;5024538;28;20048;-70
2023/05/02 01:56:55;;;;;;;6.75;3.33;;;;;;;19.51;45.10;101980.56;5024501;28;20374;-71
2023/05/02 01:59:22;;;;;;;7.50;3.35;;;;;;;19.50;44.89;101986.81;5024644;28;20159;-71
2023/05/02 02:01:50;;;;;;;5.63;3.35;;;;;;;19.46;45.16;101976.56;5024667;28;20079;-71
2023/05/02 02:04:18;;;;;;;5.15;3.30;;;;;;;19.51;44.95;101991.16;5024157;28;20033;-72
2023/05/02 02:06:47;;;;;;;5.47;3.30;;;;;;;19.49;44.91;101992.22;5024842;28;20034;-71
2023/05/02 02:09:13;;;;;;;5.72;3.15;;;;;;;19.49;45.06;101992.22;5023076;28;20064;-71
2023/05/02 02:11:47;;;;;;;5.05;3.10;;;;;;;19.49;44.94;102006.28;5024165;28;20572;-72
2023/05/02 02:14:23;;;;;;;6.00;3.53;;;;;;;19.50;44.98;102004.47;5024148;28;20374;-72
2023/05/02 02:16:54;;;;;;;6.55;3.47;;;;;;;19.48;45.04;102003.75;5024721;28;20595;-72
2023/05/02 02:19:21;;;;;;;5.38;3.30;;;;;;;19.49;44.97;102006.28;5024806;28;20370;-73
2023/05/02 02:21:48;;;;;;;5.60;3.22;;;;;;;19.47;45.02;102016.13;5023954;28;20466;-70
2023/05/02 02:24:17;;;;;;;4.97;3.28;;;;;;;19.47;44.81;102013.47;5023734;28;20053;-70
2023/05/02 02:26:42;;;;;;;5.93;3.47;;;;;;;19.47;44.99;102016.13;5022562;28;20382;-72
2023/05/02 02:29:08;;;;;;;6.30;3.50;;;;;;;19.49;44.66;102023.94;5024036;28;20029;-70
2023/05/02 02:31:35;;;;;;;5.32;3.08;;;;;;;19.47;45.01;102009.97;5022603;28;20771;-70
2023/05/02 02:34:01;;;;;;;5.40;3.50;;;;;;;19.45;44.95;102015.34;5024048;28;20199;-71
2023/05/02 02:36:26;;;;;;;5.50;3.10;;;;;;;19.48;45.20;102023.09;5023634;28;20044;-71
2023/05/02 02:39:21;;;;;;;5.83;3.33;;;;;;;19.44;45.11;102020.75;5023847;28;20037;-70
2023/05/02 02:42:03;;;;;;;5.65;3.17;;;;;;;19.45;45.06;102023.28;5023979;28;20056;-71
2023/05/02 02:44:49;;;;;;;6.65;3.58;;;;;;;19.46;45.02;102029.44;5023608;28;20548;-72
2023/05/02 02:47:31;;;;;;;6.55;3.28;;;;;;;19.47;44.94;102033.75;5023348;28;20034;-71
2023/05/02 02:50:26;;;;;;;4.88;3.05;;;;;;;19.47;44.86;102028.47;5023866;28;20029;-72
2023/05/02 02:52:55;;;;;;;5.80;3.40;;;;;;;19.46;44.91;102030.28;5019622;28;20073;-71
2023/05/02 02:55:33;;;;;;;5.45;3.20;;;;;;;19.45;45.04;102033.88;5021745;28;20029;-71
2023/05/02 02:58:18;;;;;;;5.75;2.95;;;;;;;19.43;45.15;102040.22;5023515;28;20037;-72
2023/05/02 03:00:46;;;;;;;5.05;3.30;;;;;;;19.45;44.95;102039.16;5023611;28;20072;-72
2023/05/02 03:03:14;;;;;;;6.00;3.35;;;;;;;19.44;44.97;102042.75;5022330;28;20065;-71
2023/05/02 03:05:42;;;;;;;5.57;3.20;;;;;;;19.42;45.04;102042.00;5023298;28;20026;-72
2023/05/02 03:08:08;;;;;;;5.28;3.25;;;;;;;19.43;44.67;102046.34;5022874;28;20132;-73
2023/05/02 03:10:34;;;;;;;5.10;2.90;;;;;;;19.44;44.97;102055.13;5023349;28;20116;-71
2023/05/02 03:12:59;;;;;;;5.10;3.30;;;;;;;19.43;44.89;102056.94;5023224;28;20143;-71
2023/05/02 03:15:50;;;;;;;5.20;3.22;;;;;;;19.42;45.06;102062.31;5022959;28;20056;-72
2023/05/02 03:18:15;;;;;;;5.38;3.20;;;;;;;19.42;45.05;102062.31;5022870;28;20473;-72
2023/05/02 03:20:40;;;;;;;5.95;3.38;;;;;;;19.42;44.84;102071.09;5023938;28;20044;-72
2023/05/02 03:23:06;;;;;;;4.85;2.60;;;;;;;19.41;45.10;102072.06;5024563;28;20030;-71
2023/05/02 03:25:31;;;;;;;5.10;2.67;;;;;;;19.37;44.87;102067.91;5023515;28;20045;-71
2023/05/02 03:27:56;;;;;;;5.07;2.90;;;;;;;19.38;44.90;102070.44;5023162;28;20037;-72
2023/05/02 03:30:22;;;;;;;4.57;2.60;;;;;;;19.39;44.96;102072.16;5023436;28;20390;-72
2023/05/02 03:32:47;;;;;;;4.90;2.83;;;;;;;19.40;45.09;102073.00;5022897;28;20037;-72
2023/05/02 03:35:12;;;;;;;5.55;2.53;;;;;;;19.40;44.86;102070.34;5021589;28;20038;-72
2023/05/02 03:37:38;;;;;;;4.75;2.78;;;;;;;19.42;45.01;102076.38;5023038;28;20107;-71
2023/05/02 03:40:03;;;;;;;6.00;3.08;;;;;;;19.39;45.04;102071.28;5023627;28;20037;-71
2023/05/02 03:42:29;;;;;;;4.90;2.75;;;;;;;19.39;45.16;102068.66;5022606;28;20069;-72
2023/05/02 03:44:55;;;;;;;5.10;2.55;;;;;;;19.41;44.84;102077.34;5022960;28;20030;-71
2023/05/02 03:47:20;;;;;;;4.78;2.60;;;;;;;19.40;45.09;102078.28;5022801;28;20033;-72
2023/05/02 03:49:45;;;;;;;5.00;2.60;;;;;;;19.38;45.01;102080.19;5021398;28;20044;-71
2023/05/02 03:52:11;;;;;;;5.45;2.88;;;;;;;19.38;44.91;102078.38;5022510;28;20041;-71
2023/05/02 03:54:36;;;;;;;4.95;2.55;;;;;;;19.35;45.15;102083.03;5022523;28;20040;-71
2023/05/02 03:57:03;;;;;;;4.68;2.72;;;;;;;19.36;45.18;102084.75;5022555;28;20031;-72
2023/05/02 03:59:31;;;;;;;4.70;2.88;;;;;;;19.37;44.90;102091.69;5021613;28;20033;-72
2023/05/02 04:01:56;;;;;;;5.38;2.65;;;;;;;19.38;45.05;102098.69;5022793;28;20044;-72
2023/05/02 04:04:22;;;;;;;6.22;2.90;;;;;;;19.39;44.93;102103.00;5021701;28;20389;-71
2023/05/02 04:06:47;;;;;;;5.07;2.60;;;;;;;19.32;45.38;102094.66;5022712;28;20037;-70
2023/05/02 04:09:13;;;;;;;5.40;2.60;;;;;;;19.37;44.97;102103.09;5024888;28;20025;-71
2023/05/02 04:11:38;;;;;;;4.68;2.72;;;;;;;19.37;45.10;102103.09;5021613;28;20053;-71
2023/05/02 04:14:03;;;;;;;5.13;2.55;;;;;;;19.37;45.10;102112.84;5022417;28;20424;-71
2023/05/02 04:16:28;;;;;;;5.03;2.80;;;;;;;19.37;44.92;102113.69;5022122;28;20030;-71
2023/05/02 04:18:54;;;;;;;4.60;2.55;;;;;;;19.34;44.78;102111.28;5022112;28;20357;-71
2023/05/02 04:21:20;;;;;;;5.35;2.55;;;;;;;19.36;45.02;102124.38;5022107;28;20429;-71
2023/05/02 04:23:45;;;;;;;4.85;2.42;;;;;;;19.37;44.99;102126.06;5022157;28;20056;-71
2023/05/02 04:26:10;;;;;;;5.32;2.40;;;;;;;19.34;44.89;102119.22;5021583;28;20037;-71
2023/05/02 04:28:35;;;;;;;4.65;2.40;;;;;;;19.36;44.84;102134.97;5022107;28;20030;-72
2023/05/02 04:31:02;;;;;;;5.22;2.10;;;;;;;19.35;44.89;102142.03;5022132;28;20435;-71
2023/05/02 04:33:28;;;;;;;4.30;2.10;;;;;;;19.34;44.67;102144.78;5022033;28;20068;-72
2023/05/02 04:35:53;;;;;;;7.28;2.40;;;;;;;19.32;44.70;102136.09;5021068;28;20069;-71
2023/05/02 04:38:18;;;;;;;4.28;2.22;;;;;;;19.33;44.68;102151.03;5022580;28;20043;-72
2023/05/02 04:40:44;;;;;;;4.65;2.40;;;;;;;19.31;44.84;102150.25;5021939;28;20132;-73
2023/05/02 04:43:10;;;;;;;4.20;2.03;;;;;;;19.32;44.76;102168.66;5022061;28;20037;-72
2023/05/02 04:45:38;;;;;;;4.63;2.20;;;;;;;19.30;44.91;102167.91;5021308;28;20084;-72
2023/05/02 04:48:03;;;;;;;4.97;2.30;;;;;;;19.27;44.57;102160.19;5021719;28;20496;-71
2023/05/02 04:50:30;;;;;;;4.75;1.98;;;;;;;19.31;44.98;102179.34;5021176;28;20037;-72
2023/05/02 04:52:56;;;;;;;6.47;2.03;;;;;;;19.31;44.43;102180.19;5021496;28;20025;-72
2023/05/02 04:55:21;;;;;;;3.97;1.80;;;;;;;19.32;44.31;102191.63;5021630;28;20079;-71
2023/05/02 04:57:46;;;;;;;5.13;2.13;;;;;;;19.29;44.34;102190.00;5021267;28;20271;-71
2023/05/02 05:00:12;;;;;;;4.67;1.90;;;;;;;19.30;44.22;102193.50;5022148;28;20913;-72
2023/05/02 05:02:38;;;;;;;4.72;2.40;;;;;;;19.30;44.23;102193.50;5021643;28;20254;-72
2023/05/02 05:05:04;;;;;;;4.20;1.70;;;;;;;19.31;44.11;102200.47;5021306;28;20102;-71
2023/05/02 05:07:30;;;;;;;4.47;1.90;;;;;;;19.28;44.16;102201.53;5021573;28;20033;-71
2023/05/02 05:09:55;;;;;;;3.35;1.75;;;;;;;19.27;43.81;102204.28;5021188;28;20037;-72
2023/05/02 05:12:20;;;;;;;4.05;1.80;;;;;;;19.30;44.00;102215.50;5021546;28;20045;-70
2023/05/02 05:14:45;;;;;;;4.10;1.85;;;;;;;19.28;43.91;102216.53;5019683;28;20564;-72
2023/05/02 05:17:11;;;;;;;5.47;1.73;;;;;;;19.29;43.85;102210.31;5021719;28;20045;-72
2023/05/02 05:19:36;;;;;;;4.88;1.63;;;;;;;19.30;43.80;102227.88;5021174;28;20567;-71
2023/05/02 05:22:01;;;;;;;4.30;2.22;;;;;;;19.29;43.97;102234.09;5021088;28;20099;-71
2023/05/02 05:24:26;;;;;;;4.83;1.83;;;;;;;19.27;43.80;102226.28;5021166;28;20576;-72
2023/05/02 05:26:52;;;;;;;4.38;1.60;;;;;;;19.29;43.76;102234.94;5020781;28;20257;-71
2023/05/02 05:29:18;;;;;;;3.80;1.85;;;;;;;19.24;43.71;102223.81;5019988;28;20029;-70
2023/05/02 05:31:43;;;;;;;4.30;1.80;;;;;;;19.24;43.34;102231.75;5021593;28;20535;-71
2023/05/02 05:34:08;;;;;;;4.57;1.92;;;;;;;19.25;43.71;102228.16;5020923;28;20037;-72
2023/05/02 05:36:34;;;;;;;4.38;1.98;;;;;;;19.26;43.78;102234.28;5021418;28;20405;-71
2023/05/02 05:39:00;;;;;;;3.28;1.77;;;;;;;19.25;43.68;102244.03;5021205;28;20478;-71
2023/05/02 05:41:25;;;;;;;4.03;1.70;;;;;;;19.25;43.70;102240.50;5021322;28;20053;-71
2023/05/02 05:43:50;;;;;;;4.38;1.80;;;;;;;19.25;43.72;102241.38;5019798;28;20037;-72
2023/05/02 05:46:16;;;;;;;4.55;1.50;;;;;;;19.24;43.79;102241.47;5021152;28;20030;-73
2023/05/02 05:48:41;;;;;;;3.20;1.48;;;;;;;19.25;43.77;102243.16;5020734;28;20095;-71
2023/05/02 05:51:07;;;;;;;3.90;1.60;;;;;;;19.25;43.76;102246.66;5020810;28;20083;-71
2023/05/02 05:53:32;;;;;;;4.07;1.60;;;;;;;19.24;43.65;102244.13;5020872;28;20072;-72
2023/05/02 05:55:58;;;;;;;3.20;1.40;;;;;;;19.23;43.64;102245.06;5020942;28;20557;-71
2023/05/02 05:58:23;;;;;;;4.15;1.50;;;;;;;19.24;43.68;102252.06;5019508;28;20033;-72
2023/05/02 06:00:49;;;;;;;4.85;1.70;;;;;;;19.25;43.72;102253.72;5020876;28;20033;-71
2023/05/02 06:03:15;;;;;;;3.20;1.38;;;;;;;19.25;43.89;102259.03;5020706;28;20040;-72
2023/05/02 06:05:41;;;;;;;3.25;1.42;;;;;;;19.25;43.58;102259.88;5020699;28;20124;-73
2023/05/02 06:08:06;;;;;;;3.88;1.40;;;;;;;19.24;43.77;102268.75;5020472;28;20128;-73
2023/05/02 06:10:31;;;;;;;4.03;1.48;;;;;;;19.26;43.84;102274.78;5020854;28;20034;-71
2023/05/02 06:12:57;;;;;;;2.75;1.35;;;;;;;19.24;43.85;102279.31;5020846;28;20149;-71
2023/05/02 06:15:22;;;;;;;4.13;1.70;;;;;;;19.28;43.86;102279.97;5020661;28;20450;-71
2023/05/02 06:17:50;;;;;;;3.08;1.48;;;;;;;19.28;43.75;102285.25;5020526;28;20033;-72
2023/05/02 06:20:15;;;;;;;3.35;1.70;;;;;;;19.29;43.74;102287.81;5020609;28;20040;-74
2023/05/02 06:22:41;;;;;;;3.35;1.70;;;;;;;19.30;43.97;102288.66;5022244;28;20037;-74
2023/05/02 06:25:07;;;;;;;4.10;1.48;;;;;;;19.31;44.06;102293.00;5023255;28;20042;-73
2023/05/02 06:27:33;;;;;;;5.15;1.95;;;;;;;19.29;44.17;102297.53;5024194;28;20735;-74
2023/05/02 06:29:58;;;;;;;5.32;1.60;;;;;;;19.32;44.19;102303.47;5024143;28;20044;-74
2023/05/02 06:32:24;;;;;;;4.57;1.85;;;;;;;19.31;44.11;102306.22;5023617;28;20037;-73
2023/05/02 06:34:49;;;;;;;4.40;1.52;;;;;;;19.32;44.21;102307.91;5024225;28;20087;-74
2023/05/02 06:37:14;;;;;;;3.40;1.40;;;;;;;19.31;44.19;102312.38;5023735;28;20059;-73
2023/05/02 06:39:39;;;;;;;5.60;1.90;;;;;;;19.32;44.28;102318.50;5024277;28;20473;-73
2023/05/02 06:42:05;;;;;;;3.33;1.35;;;;;;;19.31;43.94;102322.06;5024141;28;20463;-73
2023/05/02 06:44:30;;;;;;;4.87;1.43;;;;;;;19.34;44.34;102328.03;5023971;28;21229;-73
2023/05/02 06:46:55;;;;;;;6.55;2.60;;;;;;;19.33;44.96;102334.25;5023969;28;20266;-74
2023/05/02 06:49:21;;;;;;;9.93;3.15;;;;;;;19.35;46.49;102347.38;5022385;28;20418;-74
2023/05/02 06:51:47;;;;;;;7.82;2.78;;;;;;;19.36;47.63;102343.81;5023784;28;20474;-75
2023/05/02 06:54:13;;;;;;;6.40;2.63;;;;;;;19.37;47.82;102340.19;5023982;28;20068;-73
2023/05/02 06:56:39;;;;;;;8.65;2.85;;;;;;;19.40;48.15;102354.06;5023770;28;20466;-72
2023/05/02 06:59:04;;;;;;;8.73;2.80;;;;;;;19.40;48.14;102353.22;5023894;28;20037;-73
2023/05/02 07:01:30;;;;;;;9.55;2.83;;;;;;;19.43;48.26;102360.13;5023268;28;20025;-73
2023/05/02 07:03:55;;;;;;;6.72;2.50;;;;;;;19.44;48.19;102360.03;5023837;28;20033;-71
2023/05/02 07:06:20;;;;;;;7.55;2.38;;;;;;;19.44;48.17;102353.88;5022325;28;20485;-73
2023/05/02 07:08:46;;;;;;;6.65;2.65;;;;;;;19.46;48.28;102368.69;5024595;28;20033;-77
2023/05/02 07:11:11;;;;;;;6.70;2.67;;;;;;;19.47;48.57;102367.75;5024608;28;20506;-75
2023/05/02 07:13:36;;;;;;;6.28;2.53;;;;;;;19.47;48.59;102365.13;5023663;28;20315;-73
2023/05/02 07:16:02;;;;;;;7.50;2.87;;;;;;;19.49;48.37;102371.16;5023310;28;20038;-74
2023/05/02 07:18:27;;;;;;;6.20;2.65;;;;;;;19.50;48.25;102375.50;5023263;28;20258;-72
2023/05/02 07:20:52;;;;;;;6.15;2.33;;;;;;;19.49;48.06;102380.88;5021735;28;20045;-72
2023/05/02 07:23:17;;;;;;;5.27;2.00;;;;;;;19.50;48.32;102377.28;5023004;28;20053;-72
2023/05/02 07:25:43;;;;;;;8.18;2.60;;;;;;;19.53;47.81;102385.03;5023572;28;20263;-70
2023/05/02 07:28:08;;;;;;;7.88;2.40;;;;;;;19.54;47.71;102390.22;5023043;28;20065;-70
2023/05/02 07:30:33;;;;;;;9.52;2.70;;;;;;;19.52;47.70;102389.47;5023429;28;20128;-70
2023/05/02 07:32:59;;;;;;;6.47;2.03;;;;;;;19.53;47.54;102401.72;5023217;28;20478;-70
2023/05/02 07:35:24;;;;;;;5.55;1.80;;;;;;;19.54;47.41;102403.44;5023059;28;20037;-70
2023/05/02 07:37:50;;;;;;;7.80;2.22;;;;;;;19.56;47.43;102405.97;5023510;28;20125;-72
2023/05/02 07:40:15;;;;;;;8.27;2.20;;;;;;;19.58;47.48;102402.31;5022299;28;20480;-69
2023/05/02 07:42:40;;;;;;;8.48;1.88;;;;;;;19.57;47.34;102405.88;5023252;28;20041;-69
2023/05/02 07:45:07;;;;;;;7.75;2.05;;;;;;;19.60;47.25;102412.78;5022800;28;20111;-67
2023/05/02 07:47:32;;;;;;;5.90;2.20;;;;;;;19.61;46.96;102406.53;5023171;28;20042;-68
2023/05/02 07:49:57;;;;;;;4.28;1.60;;;;;;;19.62;46.98;102410.06;5022317;28;20033;-67
2023/05/02 07:52:23;;;;;;;8.15;2.10;;;;;;;19.61;46.86;102416.28;5022603;28;20079;-67
2023/05/02 07:54:49;;;;;;;8.38;1.73;;;;;;;19.59;46.82;102413.72;5022198;28;20026;-68
2023/05/02 07:57:14;;;;;;;4.35;1.40;;;;;;;19.60;46.55;102407.50;5022696;28;20462;-66
2023/05/02 07:59:39;;;;;;;8.43;2.05;;;;;;;19.61;46.46;102419.75;5020942;28;20047;-65
2023/05/02 08:02:05;;;;;;;7.72;1.80;;;;;;;19.61;46.41;102418.91;5021160;28;20045;-65
2023/05/02 08:04:31;;;;;;;5.95;2.00;;;;;;;19.61;46.30;102418.91;5022119;28;20029;-64
2023/05/02 08:06:56;;;;;;;7.70;1.83;;;;;;;19.58;46.62;102420.81;5022664;28;20432;-71
2023/05/02 08:09:22;;;;;;;8.07;2.43;;;;;;;19.57;46.92;102427.03;5022213;28;20040;-66
2023/05/02 08:11:47;;;;;;;9.98;2.20;;;;;;;19.54;46.74;102429.88;5022271;28;20739;-66
2023/05/02 08:14:14;;;;;;;7.70;1.95;;;;;;;19.56;46.57;102433.28;5022188;28;20453;-66
2023/05/02 08:16:40;;;;;;;7.07;2.00;;;;;;;19.59;46.78;102442.81;5022138;28;20626;-67
2023/05/02 08:19:05;;;;;;;8.48;2.22;;;;;;;19.55;46.93;102444.81;5022101;28;20064;-64
2023/05/02 08:21:31;;;;;;;9.37;2.23;;;;;;;19.54;46.33;102434.31;5022047;28;20120;-66
2023/05/02 08:23:59;;;;;;;7.03;2.05;;;;;;;19.53;45.88;102444.03;5021841;28;20778;-67
2023/05/02 08:26:25;;;;;;;9.30;2.25;;;;;;;19.53;45.10;102461.69;5021864;28;20034;-64
2023/05/02 08:28:50;;;;;;;9.85;1.70;;;;;;;19.44;43.67;102452.56;5020424;28;20095;-68
2023/05/02 08:31:17;;;;;;;6.70;1.60;;;;;;;19.45;44.29;102458.69;5021078;28;20052;-66
2023/05/02 08:33:42;;;;;;;9.10;1.80;;;;;;;19.45;44.69;102462.16;5021884;28;20033;-71
2023/05/02 08:36:12;;;;;;;6.05;2.42;;;;;;;19.40;42.72;102469.53;5021734;28;20333;-66
2023/05/02 08:38:38;;;;;;;7.45;1.75;;;;;;;19.37;43.96;102464.44;5021616;28;20037;-69
2023/05/02 08:41:10;;;;;;;5.05;1.58;;;;;;;19.37;44.31;102467.91;5021898;28;20036;-70
2023/05/02 08:43:36;;;;;;;8.07;1.90;;;;;;;19.40;44.30;102474.84;5021129;28;20038;-68
2023/05/02 08:46:06;;;;;;;5.57;1.80;;;;;;;19.39;44.78;102475.75;5021542;28;20033;-68
2023/05/02 08:48:32;;;;;;;5.85;1.60;;;;;;;19.38;44.66;102472.28;5021692;28;20021;-69
2023/05/02 08:50:58;;;;;;;7.22;1.90;;;;;;;19.37;44.70;102473.22;5021077;28;20039;-67
2023/05/02 08:53:24;;;;;;;6.50;2.00;;;;;;;19.39;44.58;102476.63;5019674;28;20088;-67
2023/05/02 08:55:49;;;;;;;8.50;1.80;;;;;;;19.39;44.46;102481.06;5021435;28;20474;-69
2023/05/02 08:58:15;;;;;;;5.93;1.90;;;;;;;19.40;44.59;102485.41;5021382;28;20037;-71
2023/05/02 09:00:41;;;;;;;6.13;1.75;;;;;;;19.39;44.64;102484.56;5021229;28;20487;-70
2023/05/02 09:03:12;;;;;;;6.65;2.03;;;;;;;19.40;44.42;102490.69;5020724;28;20037;-69
2023/05/02 09:05:40;;;;;;;8.57;2.42;;;;;;;19.42;44.40;102491.44;5021278;28;20070;-68
2023/05/02 09:08:06;;;;;;;5.15;1.80;;;;;;;19.42;44.46;102494.09;5020101;28;20037;-68
2023/05/02 09:10:35;;;;;;;6.93;1.90;;;;;;;19.45;44.40;102495.69;5021356;28;20044;-70
2023/05/02 09:13:36;;;;;;;6.18;2.20;;;;;;;19.45;44.19;102503.63;5020976;28;20026;-70
2023/05/02 09:16:13;;;;;;;7.60;2.08;;;;;;;19.46;44.20;102500.91;5021059;28;20489;-68
2023/05/02 09:18:44;;;;;;;5.40;1.52;;;;;;;19.45;44.36;102495.69;5021430;28;20492;-69
2023/05/02 09:21:14;;;;;;;5.82;1.88;;;;;;;19.44;44.43;102497.50;5021077;28;20045;-68
2023/05/02 09:23:45;;;;;;;6.40;1.60;;;;;;;19.46;44.34;102506.19;5020914;28;20055;-69
2023/05/02 09:26:10;;;;;;;5.20;1.42;;;;;;;19.48;44.42;102506.09;5020869;28;20156;-66
2023/05/02 09:29:00;;;;;;;6.00;1.55;;;;;;;19.47;44.41;102505.25;5020873;28;20120;-70
2023/05/02 09:31:33;;;;;;;6.53;1.40;;;;;;;19.46;44.61;102500.91;5020260;28;20512;-70
2023/05/02 09:34:11;;;;;;;6.72;2.05;;;;;;;19.50;44.48;102506.84;5021332;28;20025;-71
2023/05/02 09:36:42;;;;;;;7.90;1.70;;;;;;;19.50;44.59;102506.84;5021015;28;20496;-69
2023/05/02 09:39:15;;;;;;;3.53;1.55;;;;;;;19.48;44.24;102509.56;5020925;28;20060;-71
2023/05/02 09:41:42;;;;;;;5.50;1.70;;;;;;;19.51;44.34;102522.63;5019003;28;20029;-70
2023/05/02 09:44:12;;;;;;;5.18;1.55;;;;;;;19.49;44.21;102523.69;5021192;28;20041;-69
2023/05/02 09:46:42;;;;;;;8.02;1.70;;;;;;;19.50;44.15;102534.16;5020440;28;20033;-67
2023/05/02 09:49:08;;;;;;;7.05;1.50;;;;;;;19.51;44.22;102533.19;5020214;28;20129;-69
2023/05/02 09:51:34;;;;;;;6.13;1.70;;;;;;;19.48;44.24;102525.44;5020463;28;20053;-67
2023/05/02 09:54:00;;;;;;;8.15;1.92;;;;;;;19.50;44.30;102536.81;5021230;28;20378;-69
2023/05/02 09:56:25;;;;;;;6.50;1.60;;;;;;;19.49;44.05;102526.31;5020519;28;20029;-67
2023/05/02 09:58:50;;;;;;;8.50;1.80;;;;;;;19.50;44.39;102533.28;5024411;28;20037;-69
2023/05/02 10:01:18;;;;;;;6.47;1.98;;;;;;;19.51;44.21;102527.91;5024745;28;20021;-69
2023/05/02 10:03:47;;;;;;;7.00;1.40;;;;;;;19.51;44.25;102535.00;5024630;28;20616;-67
2023/05/02 10:06:17;;;;;;;6.57;1.80;;;;;;;19.50;44.39;102530.63;5024750;28;20490;-67
2023/05/02 10:08:44;;;;;;;7.88;1.60;;;;;;;19.51;44.25;102535.84;5024878;28;20034;-68
2023/05/02 10:11:11;;;;;;;4.82;1.38;;;;;;;19.50;44.36;102531.50;5024433;28;20033;-67
2023/05/02 10:13:38;;;;;;;7.22;1.70;;;;;;;19.50;44.29;102528.00;5024409;28;20040;-67
2023/05/02 10:16:05;;;;;;;6.28;1.60;;;;;;;19.52;44.17;102531.41;5024348;28;20087;-69
2023/05/02 10:18:45;;;;;;;8.70;1.70;;;;;;;19.53;44.22;102535.75;5024569;28;20133;-67
2023/05/02 10:21:13;;;;;;;8.32;1.80;;;;;;;19.55;44.35;102537.38;5024482;28;20065;-67
2023/05/02 10:23:45;;;;;;;4.60;1.60;;;;;;;19.52;44.38;102534.91;5024202;28;20053;-68
2023/05/02 10:26:14;;;;;;;7.97;1.73;;;;;;;19.54;44.28;102529.53;5024563;28;20041;-68
2023/05/02 10:28:41;;;;;;;5.97;1.92;;;;;;;19.54;44.12;102545.38;5023616;28;20041;-69
2023/05/02 10:31:10;;;;;;;4.90;1.40;;;;;;;19.52;44.08;102528.78;5023910;28;20047;-68
2023/05/02 10:33:37;;;;;;;5.45;1.55;;;;;;;19.55;43.98;102539.13;5022442;28;20120;-67
2023/05/02 10:36:04;;;;;;;4.95;1.35;;;;;;;19.56;43.91;102544.34;5023864;28;20219;-66
2023/05/02 10:38:30;;;;;;;5.55;2.28;;;;;;;19.55;44.14;102550.59;5023845;28;20493;-67
2023/05/02 10:41:00;;;;;;;3.85;1.52;;;;;;;19.54;44.02;102546.22;5022586;28;20120;-69
2023/05/02 10:43:31;;;;;;;4.68;1.42;;;;;;;19.50;44.02;102547.38;5023636;28;20040;-69
2023/05/02 10:45:57;;;;;;;5.32;1.40;;;;;;;19.53;44.13;102547.16;5023470;28;20470;-69
2023/05/02 10:48:26;;;;;;;6.93;2.00;;;;;;;19.54;43.82;102548.03;5024114;28;20056;-69
2023/05/02 10:50:54;;;;;;;5.07;1.40;;;;;;;19.54;43.78;102551.53;5023958;28;20068;-68
2023/05/02 10:53:24;;;;;;;4.30;1.35;;;;;;;19.56;43.73;102548.78;5023962;28;20041;-68
2023/05/02 10:56:15;;;;;;;5.57;1.70;;;;;;;19.54;43.92;102548.88;5023744;28;20124;-68
2023/05/02 10:58:43;;;;;;;4.43;1.60;;;;;;;19.53;43.92;102552.44;5023180;28;20136;-69
2023/05/02 11:01:23;;;;;;;3.28;1.30;;;;;;;19.55;43.82;102552.38;5023657;28;20500;-69
2023/05/02 11:03:56;;;;;;;4.05;1.65;;;;;;;19.53;43.62;102547.16;5023731;28;20648;-70
2023/05/02 11:06:27;;;;;;;3.17;1.38;;;;;;;19.58;43.62;102557.47;5023232;28;20573;-69
2023/05/02 11:09:13;;;;;;;5.82;1.75;;;;;;;19.54;43.52;102556.81;5022613;28;20038;-69
2023/05/02 11:11:45;;;;;;;5.70;1.63;;;;;;;19.56;43.70;102556.72;5022997;28;20573;-70
2023/05/02 11:14:33;;;;;;;5.88;1.70;;;;;;;19.56;43.74;102564.66;5023312;28;20037;-69
2023/05/02 11:17:04;;;;;;;5.13;1.50;;;;;;;19.57;43.43;102555.78;5022993;28;20033;-68
2023/05/02 11:19:52;;;;;;;4.93;1.73;;;;;;;19.55;43.38;102549.72;5022811;28;20033;-69
2023/05/02 11:22:22;;;;;;;4.78;1.50;;;;;;;19.60;43.43;102562.66;5023094;28;20283;-69
2023/05/02 11:24:49;;;;;;;3.92;1.35;;;;;;;19.57;43.16;102558.44;5021833;28;20041;-70
2023/05/02 11:27:34;;;;;;;3.42;1.30;;;;;;;19.58;43.49;102558.34;5023432;28;20561;-70
2023/05/02 11:30:09;;;;;;;4.35;1.30;;;;;;;19.59;43.25;102559.19;5022808;28;20025;-70